ADDS METAR Data INFO
IDs: Format: Raw Decoded Include TAF

Data at: 0243 UTC 17 Jan 2018

KSET 170154Z AUTO 29005KT 10SM OVC024 M13/M17 A3071 RMK AO2 SLP409 T11281167
KSET 170121Z AUTO 30003KT 10SM BKN024 M13/M17 A3071 RMK AO2 T11331172
KSET 170054Z AUTO 29005KT 10SM FEW023 SCT033 M14/M17 A3070 RMK AO2 SLP406 T11391172
KSET 162354Z AUTO 30008KT 10SM FEW025 OVC037 M13/M17 A3068 RMK AO2 SLP400 T11281172 11122 21144 53006
KSET 162254Z AUTO 27009KT 10SM BKN033 OVC048 M13/M18 A3067 RMK AO2 SLP396 T11281178
KSET 162154Z AUTO 30012KT 10SM BKN030 M12/M18 A3068 RMK AO2 SLP398 T11221178
KSET 162054Z AUTO 29011KT 10SM OVC044 M13/M18 A3067 RMK AO2 SLP394 T11281183 55002
KSET 161954Z AUTO 28011KT 10SM CLR M13/M19 A3066 RMK AO2 SLP391 T11281189
KSET 161854Z AUTO 28013KT 10SM OVC043 M13/M19 A3066 RMK AO2 SLP393 T11331194
KSET 161803Z AUTO 31013KT 10SM SCT031 OVC043 M14/M20 A3067 RMK AO2 T11391200
KSET 161754Z AUTO 29013KT 10SM BKN028 OVC038 M14/M19 A3067 RMK AO2 SLP396 60000 T11391194 11139 21183 58005
KSET 161654Z AUTO 28014KT 10SM OVC019 M16/M21 A3069 RMK AO2 SLP403 T11561211
KSET 161618Z AUTO 28013KT 10SM BKN027 OVC038 M17/M21 A3069 RMK AO2 T11671211
KSET 161554Z AUTO 29013KT 6SM HZ FEW037 OVC048 M17/M21 A3069 RMK AO2 SLP403 T11671211
KSET 161454Z AUTO 28014KT 8SM OVC040 M17/M22 A3069 RMK AO2 SLP401 60000 T11721217 51011
KSET 161354Z AUTO 29015KT 9SM OVC043 M18/M22 A3067 RMK AO2 SNB33E50 SLP397 P0000 T11781222
KSET 161254Z AUTO 27011KT 10SM CLR M18/M22 A3067 RMK AO2 SLP395 T11781222
KSET 161154Z AUTO 27010KT 10SM CLR M18/M22 A3066 RMK AO2 SLP390 T11781222 11150 21178 52012
KSET 161054Z AUTO 30010KT 10SM CLR M17/M22 A3064 RMK AO2 SLP384 T11721217
KSET 160954Z AUTO 29009KT 10SM FEW023 M17/M22 A3064 RMK AO2 SLP383 T11671217
KSET 160854Z AUTO 30015KT 10SM CLR M17/M22 A3062 RMK AO2 SLP378 T11671217 51006
KSET 160754Z AUTO 30014KT 10SM FEW020 M16/M21 A3062 RMK AO2 SLP377 T11611211
KSET 160752Z AUTO 30013G22KT 10SM FEW020 M16/M21 A3062 RMK AO2
KSET 160654Z AUTO 29014G26KT 10SM OVC018 M16/M21 A3060 RMK AO2 PK WND 29026/0646 SLP371 T11561206
KSET 160554Z AUTO 30014KT 10SM BKN023 M15/M21 A3061 RMK AO2 SLP373 T11501206 11117 21150 410111150 50013
KSET 160454Z AUTO 30018G25KT 10SM OVC024 M14/M20 A3061 RMK AO2 SLP374 T11391200
KSET 160414Z AUTO 30008KT 10SM OVC029 M14/M19 A3061 RMK AO2 T11391189
KSET 160403Z AUTO 32008KT 10SM BKN030 M14/M19 A3061 RMK AO2 T11391194
KSET 160354Z AUTO 29008KT 10SM BKN029 M13/M19 A3060 RMK AO2 SLP369 T11331194
KSET 160254Z AUTO 30013KT 10SM CLR M13/M19 A3057 RMK AO2 SLP360 T11281189 53020
KSET 160154Z AUTO 30013G19KT 10SM CLR M12/M19 A3055 RMK AO2 SLP352 T11221189
KSET 160054Z AUTO 29010KT 10SM CLR M12/M18 A3053 RMK AO2 SLP346 T11171183
KSET 152354Z AUTO 29013KT 10SM CLR M12/M18 A3051 RMK AO2 SLP339 T11171183 11072 21117 51036
KSET 152254Z AUTO 31015KT 10SM FEW030 M11/M17 A3049 RMK AO2 PK WND 29027/2233 SLP331 T11061172
KSET 152154Z AUTO 28018G25KT 10SM FEW032 M09/M17 A3045 RMK AO2 PK WND 28028/2134 SLP317 T10941172
KSET 152054Z AUTO 29014G22KT 10SM CLR M08/M16 A3041 RMK AO2 SLP302 T10831156 53008
KSET 151954Z AUTO 29018G24KT 10SM CLR M08/M16 A3038 RMK AO2 SLP294 T10831161
KSET 151913Z AUTO 28018G24KT 10SM SCT031 M08/M15 A3038 RMK AO2 T10781150
KSET 151854Z AUTO 29015G22KT 10SM BKN029 M08/M14 A3037 RMK AO2 SLP291 T10781144
KSET 151842Z AUTO 30015G24KT 10SM BKN027 M08/M14 A3037 RMK AO2 T10781144
KSET 151754Z AUTO 28016G24KT 10SM CLR M08/M14 A3038 RMK AO2 SLP293 T10781144 11011 21083 50020
KSET 151654Z AUTO 31016G25KT 10SM CLR M08/M14 A3039 RMK AO2 PK WND 30026/1559 SLP296 T10781139
KSET 151554Z AUTO 32012G22KT 10SM FEW035 M08/M14 A3038 RMK AO2 PK WND 30027/1502 SLP291 T10831139
KSET 151454Z AUTO 32014G22KT 10SM SCT023 OVC039 M06/M12 A3032 RMK AO2 PK WND 35031/1422 SLP273 T10611117 53045